sensor_id;sensor_type;location;lat;lon;timestamp;P1;durP1;ratioP1;P2;durP2;ratioP2
22219;SDS011;11279;48.364;10.904;2023-04-06T00:00:57;16.83;;;9.90;;
22219;SDS011;11279;48.364;10.904;2023-04-06T00:01:58;15.57;;;9.87;;
22219;SDS011;11279;48.364;10.904;2023-04-06T00:02:58;18.47;;;10.07;;
22219;SDS011;11279;48.364;10.904;2023-04-06T00:03:59;18.40;;;9.10;;
22219;SDS011;11279;48.364;10.904;2023-04-06T00:04:59;17.37;;;10.63;;
22219;SDS011;11279;48.364;10.904;2023-04-06T00:06:00;15.73;;;9.70;;
22219;SDS011;11279;48.364;10.904;2023-04-06T00:07:00;19.23;;;9.53;;
22219;SDS011;11279;48.364;10.904;2023-04-06T00:08:01;17.63;;;10.27;;
22219;SDS011;11279;48.364;10.904;2023-04-06T00:09:01;16.13;;;10.20;;
22219;SDS011;11279;48.364;10.904;2023-04-06T00:10:02;18.87;;;10.23;;
22219;SDS011;11279;48.364;10.904;2023-04-06T00:11:03;17.65;;;9.30;;
22219;SDS011;11279;48.364;10.904;2023-04-06T00:12:03;19.53;;;10.47;;
22219;SDS011;11279;48.364;10.904;2023-04-06T00:13:05;19.47;;;10.20;;
22219;SDS011;11279;48.364;10.904;2023-04-06T00:14:06;17.58;;;10.98;;
22219;SDS011;11279;48.364;10.904;2023-04-06T00:15:07;18.30;;;10.85;;
22219;SDS011;11279;48.364;10.904;2023-04-06T00:16:07;16.03;;;10.13;;
22219;SDS011;11279;48.364;10.904;2023-04-06T00:17:08;16.10;;;10.00;;
22219;SDS011;11279;48.364;10.904;2023-04-06T00:18:08;17.67;;;10.23;;
22219;SDS011;11279;48.364;10.904;2023-04-06T00:19:09;18.73;;;10.20;;
22219;SDS011;11279;48.364;10.904;2023-04-06T00:20:09;18.07;;;10.13;;
22219;SDS011;11279;48.364;10.904;2023-04-06T00:21:13;16.43;;;10.60;;
22219;SDS011;11279;48.364;10.904;2023-04-06T00:22:14;19.52;;;9.63;;
22219;SDS011;11279;48.364;10.904;2023-04-06T00:23:15;16.37;;;9.90;;
22219;SDS011;11279;48.364;10.904;2023-04-06T00:24:15;16.07;;;9.60;;
22219;SDS011;11279;48.364;10.904;2023-04-06T00:25:16;15.37;;;9.57;;
22219;SDS011;11279;48.364;10.904;2023-04-06T00:26:16;17.67;;;9.73;;
22219;SDS011;11279;48.364;10.904;2023-04-06T00:27:17;15.67;;;9.80;;
22219;SDS011;11279;48.364;10.904;2023-04-06T00:28:17;15.17;;;9.40;;
22219;SDS011;11279;48.364;10.904;2023-04-06T00:29:20;21.70;;;9.63;;
22219;SDS011;11279;48.364;10.904;2023-04-06T00:30:20;16.87;;;9.80;;
22219;SDS011;11279;48.364;10.904;2023-04-06T00:31:21;21.43;;;10.40;;
22219;SDS011;11279;48.364;10.904;2023-04-06T00:32:21;20.23;;;10.00;;
22219;SDS011;11279;48.364;10.904;2023-04-06T00:33:22;14.47;;;9.53;;
22219;SDS011;11279;48.364;10.904;2023-04-06T00:34:22;15.17;;;9.73;;
22219;SDS011;11279;48.364;10.904;2023-04-06T00:35:23;18.37;;;9.50;;
22219;SDS011;11279;48.364;10.904;2023-04-06T00:36:23;15.40;;;9.67;;
22219;SDS011;11279;48.364;10.904;2023-04-06T00:37:24;18.43;;;10.13;;
22219;SDS011;11279;48.364;10.904;2023-04-06T00:38:24;17.70;;;9.97;;
22219;SDS011;11279;48.364;10.904;2023-04-06T00:39:25;18.20;;;10.10;;
22219;SDS011;11279;48.364;10.904;2023-04-06T00:40:25;15.83;;;10.17;;
22219;SDS011;11279;48.364;10.904;2023-04-06T00:41:28;20.83;;;10.13;;
22219;SDS011;11279;48.364;10.904;2023-04-06T00:42:28;16.30;;;9.80;;
22219;SDS011;11279;48.364;10.904;2023-04-06T00:43:29;18.77;;;10.50;;
22219;SDS011;11279;48.364;10.904;2023-04-06T00:44:29;16.43;;;9.97;;
22219;SDS011;11279;48.364;10.904;2023-04-06T00:45:32;18.45;;;9.98;;
22219;SDS011;11279;48.364;10.904;2023-04-06T00:46:33;17.35;;;10.43;;
22219;SDS011;11279;48.364;10.904;2023-04-06T00:47:34;17.27;;;10.00;;
22219;SDS011;11279;48.364;10.904;2023-04-06T00:48:34;15.83;;;9.97;;
22219;SDS011;11279;48.364;10.904;2023-04-06T00:49:35;16.60;;;10.33;;
22219;SDS011;11279;48.364;10.904;2023-04-06T00:50:35;19.47;;;10.43;;
22219;SDS011;11279;48.364;10.904;2023-04-06T00:51:36;16.83;;;9.90;;
22219;SDS011;11279;48.364;10.904;2023-04-06T00:52:36;17.53;;;10.43;;
22219;SDS011;11279;48.364;10.904;2023-04-06T00:53:37;16.40;;;10.13;;
22219;SDS011;11279;48.364;10.904;2023-04-06T00:54:37;21.03;;;11.00;;
22219;SDS011;11279;48.364;10.904;2023-04-06T00:55:38;16.33;;;10.40;;
22219;SDS011;11279;48.364;10.904;2023-04-06T00:56:39;15.25;;;9.77;;
22219;SDS011;11279;48.364;10.904;2023-04-06T00:57:39;18.10;;;10.87;;
22219;SDS011;11279;48.364;10.904;2023-04-06T00:58:40;20.93;;;10.97;;
22219;SDS011;11279;48.364;10.904;2023-04-06T00:59:40;16.97;;;10.53;;
22219;SDS011;11279;48.364;10.904;2023-04-06T01:00:41;16.10;;;10.60;;
22219;SDS011;11279;48.364;10.904;2023-04-06T01:01:42;18.58;;;10.43;;
22219;SDS011;11279;48.364;10.904;2023-04-06T01:02:43;17.20;;;10.17;;
22219;SDS011;11279;48.364;10.904;2023-04-06T01:03:45;18.80;;;10.65;;
22219;SDS011;11279;48.364;10.904;2023-04-06T01:04:48;15.77;;;10.07;;
22219;SDS011;11279;48.364;10.904;2023-04-06T01:05:49;16.87;;;10.10;;
22219;SDS011;11279;48.364;10.904;2023-04-06T01:06:52;22.38;;;10.73;;
22219;SDS011;11279;48.364;10.904;2023-04-06T01:07:52;16.43;;;9.93;;
22219;SDS011;11279;48.364;10.904;2023-04-06T01:08:53;16.93;;;10.73;;
22219;SDS011;11279;48.364;10.904;2023-04-06T01:09:54;14.77;;;9.53;;
22219;SDS011;11279;48.364;10.904;2023-04-06T01:10:54;17.00;;;9.95;;
22219;SDS011;11279;48.364;10.904;2023-04-06T01:11:55;18.17;;;10.10;;
22219;SDS011;11279;48.364;10.904;2023-04-06T01:12:56;17.13;;;9.95;;
22219;SDS011;11279;48.364;10.904;2023-04-06T01:13:57;15.93;;;10.30;;
22219;SDS011;11279;48.364;10.904;2023-04-06T01:14:57;16.87;;;10.10;;
22219;SDS011;11279;48.364;10.904;2023-04-06T01:15:59;15.48;;;10.48;;
22219;SDS011;11279;48.364;10.904;2023-04-06T01:17:00;20.90;;;10.57;;
22219;SDS011;11279;48.364;10.904;2023-04-06T01:18:01;18.13;;;10.37;;
22219;SDS011;11279;48.364;10.904;2023-04-06T01:19:08;17.52;;;10.95;;
22219;SDS011;11279;48.364;10.904;2023-04-06T01:20:09;19.40;;;11.18;;
22219;SDS011;11279;48.364;10.904;2023-04-06T01:21:10;18.30;;;10.93;;
22219;SDS011;11279;48.364;10.904;2023-04-06T01:22:16;17.92;;;10.70;;
22219;SDS011;11279;48.364;10.904;2023-04-06T01:23:16;18.95;;;10.60;;
22219;SDS011;11279;48.364;10.904;2023-04-06T01:24:17;18.73;;;10.73;;
22219;SDS011;11279;48.364;10.904;2023-04-06T01:25:17;21.30;;;11.60;;
22219;SDS011;11279;48.364;10.904;2023-04-06T01:26:18;19.20;;;11.00;;
22219;SDS011;11279;48.364;10.904;2023-04-06T01:27:18;17.83;;;10.73;;
22219;SDS011;11279;48.364;10.904;2023-04-06T01:28:19;18.57;;;11.37;;
22219;SDS011;11279;48.364;10.904;2023-04-06T01:29:19;17.60;;;11.20;;
22219;SDS011;11279;48.364;10.904;2023-04-06T01:30:20;20.10;;;11.63;;
22219;SDS011;11279;48.364;10.904;2023-04-06T01:31:20;17.47;;;10.33;;
22219;SDS011;11279;48.364;10.904;2023-04-06T01:32:21;17.83;;;10.93;;
22219;SDS011;11279;48.364;10.904;2023-04-06T01:33:22;17.30;;;10.43;;
22219;SDS011;11279;48.364;10.904;2023-04-06T01:34:22;19.63;;;11.30;;
22219;SDS011;11279;48.364;10.904;2023-04-06T01:35:23;23.03;;;10.60;;
22219;SDS011;11279;48.364;10.904;2023-04-06T01:36:23;20.20;;;11.47;;
22219;SDS011;11279;48.364;10.904;2023-04-06T01:37:24;19.23;;;10.70;;
22219;SDS011;11279;48.364;10.904;2023-04-06T01:38:24;18.53;;;10.67;;
22219;SDS011;11279;48.364;10.904;2023-04-06T01:39:25;18.35;;;10.82;;
22219;SDS011;11279;48.364;10.904;2023-04-06T01:40:26;18.03;;;10.17;;
22219;SDS011;11279;48.364;10.904;2023-04-06T01:41:26;17.77;;;10.30;;
22219;SDS011;11279;48.364;10.904;2023-04-06T01:42:27;16.47;;;9.83;;
22219;SDS011;11279;48.364;10.904;2023-04-06T01:43:28;18.63;;;10.52;;
22219;SDS011;11279;48.364;10.904;2023-04-06T01:44:28;19.03;;;11.33;;
22219;SDS011;11279;48.364;10.904;2023-04-06T01:45:30;19.77;;;10.63;;
22219;SDS011;11279;48.364;10.904;2023-04-06T01:46:30;19.77;;;10.00;;
22219;SDS011;11279;48.364;10.904;2023-04-06T01:47:31;19.33;;;10.93;;
22219;SDS011;11279;48.364;10.904;2023-04-06T01:48:32;18.17;;;11.60;;
22219;SDS011;11279;48.364;10.904;2023-04-06T01:49:32;18.03;;;11.07;;
22219;SDS011;11279;48.364;10.904;2023-04-06T01:50:32;17.63;;;11.33;;
22219;SDS011;11279;48.364;10.904;2023-04-06T01:51:33;16.57;;;10.20;;
22219;SDS011;11279;48.364;10.904;2023-04-06T01:52:33;16.80;;;10.37;;
22219;SDS011;11279;48.364;10.904;2023-04-06T01:53:34;19.03;;;11.20;;
22219;SDS011;11279;48.364;10.904;2023-04-06T01:54:34;18.30;;;11.40;;
22219;SDS011;11279;48.364;10.904;2023-04-06T01:55:35;17.97;;;10.87;;
22219;SDS011;11279;48.364;10.904;2023-04-06T01:56:35;21.23;;;11.77;;
22219;SDS011;11279;48.364;10.904;2023-04-06T01:57:35;19.60;;;11.27;;
22219;SDS011;11279;48.364;10.904;2023-04-06T01:58:36;16.87;;;11.23;;
22219;SDS011;11279;48.364;10.904;2023-04-06T01:59:42;18.30;;;10.70;;
22219;SDS011;11279;48.364;10.904;2023-04-06T02:00:42;17.60;;;10.15;;
22219;SDS011;11279;48.364;10.904;2023-04-06T02:01:43;17.93;;;10.53;;
22219;SDS011;11279;48.364;10.904;2023-04-06T02:02:43;17.53;;;11.37;;
22219;SDS011;11279;48.364;10.904;2023-04-06T02:03:44;21.70;;;11.10;;
22219;SDS011;11279;48.364;10.904;2023-04-06T02:04:44;25.70;;;11.50;;
22219;SDS011;11279;48.364;10.904;2023-04-06T02:05:45;19.23;;;10.57;;
22219;SDS011;11279;48.364;10.904;2023-04-06T02:06:45;18.87;;;11.27;;
22219;SDS011;11279;48.364;10.904;2023-04-06T02:07:46;19.87;;;11.17;;
22219;SDS011;11279;48.364;10.904;2023-04-06T02:08:46;19.07;;;11.07;;
22219;SDS011;11279;48.364;10.904;2023-04-06T02:09:47;22.23;;;10.90;;
22219;SDS011;11279;48.364;10.904;2023-04-06T02:10:47;19.50;;;11.37;;
22219;SDS011;11279;48.364;10.904;2023-04-06T02:11:47;19.00;;;11.33;;
22219;SDS011;11279;48.364;10.904;2023-04-06T02:12:48;20.57;;;11.07;;
22219;SDS011;11279;48.364;10.904;2023-04-06T02:13:48;23.67;;;10.90;;
22219;SDS011;11279;48.364;10.904;2023-04-06T02:14:49;18.47;;;10.47;;
22219;SDS011;11279;48.364;10.904;2023-04-06T02:15:50;18.73;;;10.63;;
22219;SDS011;11279;48.364;10.904;2023-04-06T02:16:51;16.77;;;11.02;;
22219;SDS011;11279;48.364;10.904;2023-04-06T02:17:51;20.10;;;11.20;;
22219;SDS011;11279;48.364;10.904;2023-04-06T02:18:52;20.40;;;11.20;;
22219;SDS011;11279;48.364;10.904;2023-04-06T02:19:52;22.10;;;11.73;;
22219;SDS011;11279;48.364;10.904;2023-04-06T02:20:52;20.50;;;11.77;;
22219;SDS011;11279;48.364;10.904;2023-04-06T02:21:53;17.00;;;10.90;;
22219;SDS011;11279;48.364;10.904;2023-04-06T02:22:53;17.50;;;11.33;;
22219;SDS011;11279;48.364;10.904;2023-04-06T02:23:54;19.73;;;11.87;;
22219;SDS011;11279;48.364;10.904;2023-04-06T02:24:54;15.97;;;10.40;;
22219;SDS011;11279;48.364;10.904;2023-04-06T02:25:55;16.97;;;11.57;;
22219;SDS011;11279;48.364;10.904;2023-04-06T02:26:55;19.03;;;10.83;;
22219;SDS011;11279;48.364;10.904;2023-04-06T02:27:56;19.63;;;11.27;;
22219;SDS011;11279;48.364;10.904;2023-04-06T02:28:56;18.63;;;11.67;;
22219;SDS011;11279;48.364;10.904;2023-04-06T02:29:57;19.60;;;11.37;;
22219;SDS011;11279;48.364;10.904;2023-04-06T02:30:57;18.27;;;11.10;;
22219;SDS011;11279;48.364;10.904;2023-04-06T02:31:57;19.73;;;11.67;;
22219;SDS011;11279;48.364;10.904;2023-04-06T02:33:01;20.17;;;11.63;;
22219;SDS011;11279;48.364;10.904;2023-04-06T02:34:02;21.70;;;11.30;;
22219;SDS011;11279;48.364;10.904;2023-04-06T02:35:02;19.70;;;11.30;;
22219;SDS011;11279;48.364;10.904;2023-04-06T02:36:03;18.83;;;11.53;;
22219;SDS011;11279;48.364;10.904;2023-04-06T02:37:03;20.77;;;11.47;;
22219;SDS011;11279;48.364;10.904;2023-04-06T02:38:04;19.83;;;11.07;;
22219;SDS011;11279;48.364;10.904;2023-04-06T02:39:04;18.43;;;12.30;;
22219;SDS011;11279;48.364;10.904;2023-04-06T02:40:05;22.83;;;12.27;;
22219;SDS011;11279;48.364;10.904;2023-04-06T02:41:06;21.05;;;12.27;;
22219;SDS011;11279;48.364;10.904;2023-04-06T02:42:06;18.77;;;11.50;;
22219;SDS011;11279;48.364;10.904;2023-04-06T02:43:08;18.83;;;11.13;;
22219;SDS011;11279;48.364;10.904;2023-04-06T02:44:09;17.97;;;11.50;;
22219;SDS011;11279;48.364;10.904;2023-04-06T02:45:09;18.23;;;11.50;;
22219;SDS011;11279;48.364;10.904;2023-04-06T02:46:10;19.77;;;11.33;;
22219;SDS011;11279;48.364;10.904;2023-04-06T02:47:10;20.40;;;11.53;;
22219;SDS011;11279;48.364;10.904;2023-04-06T02:48:11;18.70;;;11.30;;
22219;SDS011;11279;48.364;10.904;2023-04-06T02:49:11;23.70;;;11.60;;
22219;SDS011;11279;48.364;10.904;2023-04-06T02:50:11;18.83;;;11.50;;
22219;SDS011;11279;48.364;10.904;2023-04-06T02:51:12;19.37;;;11.80;;
22219;SDS011;11279;48.364;10.904;2023-04-06T02:52:12;18.57;;;11.70;;
22219;SDS011;11279;48.364;10.904;2023-04-06T02:53:13;20.17;;;11.20;;
22219;SDS011;11279;48.364;10.904;2023-04-06T02:54:13;18.07;;;11.37;;
22219;SDS011;11279;48.364;10.904;2023-04-06T02:55:13;21.83;;;11.57;;
22219;SDS011;11279;48.364;10.904;2023-04-06T02:56:14;19.53;;;11.30;;
22219;SDS011;11279;48.364;10.904;2023-04-06T02:57:15;20.83;;;11.37;;
22219;SDS011;11279;48.364;10.904;2023-04-06T02:58:15;17.47;;;10.87;;
22219;SDS011;11279;48.364;10.904;2023-04-06T02:59:16;16.63;;;10.37;;
22219;SDS011;11279;48.364;10.904;2023-04-06T03:00:16;19.73;;;11.53;;
22219;SDS011;11279;48.364;10.904;2023-04-06T03:01:17;20.57;;;11.87;;
22219;SDS011;11279;48.364;10.904;2023-04-06T03:02:17;18.90;;;11.00;;
22219;SDS011;11279;48.364;10.904;2023-04-06T03:03:18;18.73;;;11.17;;
22219;SDS011;11279;48.364;10.904;2023-04-06T03:04:18;17.50;;;11.27;;
22219;SDS011;11279;48.364;10.904;2023-04-06T03:05:19;17.67;;;11.17;;
22219;SDS011;11279;48.364;10.904;2023-04-06T03:06:19;18.70;;;11.47;;
22219;SDS011;11279;48.364;10.904;2023-04-06T03:07:20;20.57;;;12.27;;
22219;SDS011;11279;48.364;10.904;2023-04-06T03:08:20;21.80;;;10.83;;
22219;SDS011;11279;48.364;10.904;2023-04-06T03:09:20;20.80;;;11.90;;
22219;SDS011;11279;48.364;10.904;2023-04-06T03:10:21;19.70;;;12.35;;
22219;SDS011;11279;48.364;10.904;2023-04-06T03:11:22;20.97;;;11.53;;
22219;SDS011;11279;48.364;10.904;2023-04-06T03:12:22;19.67;;;12.53;;
22219;SDS011;11279;48.364;10.904;2023-04-06T03:13:23;22.30;;;12.23;;
22219;SDS011;11279;48.364;10.904;2023-04-06T03:14:23;19.47;;;11.40;;
22219;SDS011;11279;48.364;10.904;2023-04-06T03:15:24;21.40;;;12.00;;
22219;SDS011;11279;48.364;10.904;2023-04-06T03:16:24;19.10;;;11.40;;
22219;SDS011;11279;48.364;10.904;2023-04-06T03:17:25;19.40;;;11.50;;
22219;SDS011;11279;48.364;10.904;2023-04-06T03:18:25;19.80;;;11.83;;
22219;SDS011;11279;48.364;10.904;2023-04-06T03:19:26;23.07;;;11.80;;
22219;SDS011;11279;48.364;10.904;2023-04-06T03:20:26;21.10;;;11.47;;
22219;SDS011;11279;48.364;10.904;2023-04-06T03:21:27;18.40;;;11.23;;
22219;SDS011;11279;48.364;10.904;2023-04-06T03:22:28;20.83;;;11.47;;
22219;SDS011;11279;48.364;10.904;2023-04-06T03:23:28;20.13;;;11.82;;
22219;SDS011;11279;48.364;10.904;2023-04-06T03:24:29;19.00;;;12.23;;
22219;SDS011;11279;48.364;10.904;2023-04-06T03:25:29;20.57;;;12.20;;
22219;SDS011;11279;48.364;10.904;2023-04-06T03:26:30;18.93;;;11.47;;
22219;SDS011;11279;48.364;10.904;2023-04-06T03:27:30;21.10;;;10.73;;
22219;SDS011;11279;48.364;10.904;2023-04-06T03:28:31;20.30;;;11.77;;
22219;SDS011;11279;48.364;10.904;2023-04-06T03:29:31;18.10;;;11.67;;
22219;SDS011;11279;48.364;10.904;2023-04-06T03:30:32;18.03;;;11.30;;
22219;SDS011;11279;48.364;10.904;2023-04-06T03:31:32;19.50;;;11.97;;
22219;SDS011;11279;48.364;10.904;2023-04-06T03:32:33;20.10;;;12.33;;
22219;SDS011;11279;48.364;10.904;2023-04-06T03:33:33;18.53;;;11.00;;
22219;SDS011;11279;48.364;10.904;2023-04-06T03:34:34;17.93;;;11.67;;
22219;SDS011;11279;48.364;10.904;2023-04-06T03:35:34;23.30;;;12.40;;
22219;SDS011;11279;48.364;10.904;2023-04-06T03:36:36;18.60;;;11.43;;
22219;SDS011;11279;48.364;10.904;2023-04-06T03:37:37;18.63;;;11.30;;
22219;SDS011;11279;48.364;10.904;2023-04-06T03:38:37;19.17;;;10.93;;
22219;SDS011;11279;48.364;10.904;2023-04-06T03:39:38;23.17;;;11.90;;
22219;SDS011;11279;48.364;10.904;2023-04-06T03:40:38;23.23;;;11.27;;
22219;SDS011;11279;48.364;10.904;2023-04-06T03:41:39;23.13;;;12.90;;
22219;SDS011;11279;48.364;10.904;2023-04-06T03:42:39;21.60;;;12.57;;
22219;SDS011;11279;48.364;10.904;2023-04-06T03:43:39;18.63;;;11.50;;
22219;SDS011;11279;48.364;10.904;2023-04-06T03:44:40;24.30;;;14.17;;
22219;SDS011;11279;48.364;10.904;2023-04-06T03:45:40;19.70;;;12.53;;
22219;SDS011;11279;48.364;10.904;2023-04-06T03:46:41;19.47;;;11.10;;
22219;SDS011;11279;48.364;10.904;2023-04-06T03:47:41;21.43;;;12.40;;
22219;SDS011;11279;48.364;10.904;2023-04-06T03:48:41;22.57;;;12.80;;
22219;SDS011;11279;48.364;10.904;2023-04-06T03:49:42;24.53;;;13.43;;
22219;SDS011;11279;48.364;10.904;2023-04-06T03:50:42;18.43;;;11.90;;
22219;SDS011;11279;48.364;10.904;2023-04-06T03:51:43;17.67;;;11.63;;
22219;SDS011;11279;48.364;10.904;2023-04-06T03:52:43;21.93;;;11.53;;
22219;SDS011;11279;48.364;10.904;2023-04-06T03:53:43;19.60;;;11.70;;
22219;SDS011;11279;48.364;10.904;2023-04-06T03:54:44;21.20;;;12.50;;
22219;SDS011;11279;48.364;10.904;2023-04-06T03:55:44;20.70;;;12.33;;
22219;SDS011;11279;48.364;10.904;2023-04-06T03:56:45;22.13;;;11.80;;
22219;SDS011;11279;48.364;10.904;2023-04-06T03:57:45;19.80;;;11.70;;
22219;SDS011;11279;48.364;10.904;2023-04-06T03:58:46;20.20;;;10.87;;
22219;SDS011;11279;48.364;10.904;2023-04-06T03:59:50;19.50;;;11.20;;
22219;SDS011;11279;48.364;10.904;2023-04-06T04:00:50;19.37;;;11.40;;
22219;SDS011;11279;48.364;10.904;2023-04-06T04:01:51;20.70;;;11.53;;
22219;SDS011;11279;48.364;10.904;2023-04-06T04:02:51;20.33;;;11.80;;
22219;SDS011;11279;48.364;10.904;2023-04-06T04:03:52;20.27;;;11.90;;
22219;SDS011;11279;48.364;10.904;2023-04-06T04:04:53;23.52;;;12.30;;
22219;SDS011;11279;48.364;10.904;2023-04-06T04:05:53;18.00;;;11.27;;
22219;SDS011;11279;48.364;10.904;2023-04-06T04:06:55;19.98;;;11.75;;
22219;SDS011;11279;48.364;10.904;2023-04-06T04:07:55;21.50;;;12.40;;
22219;SDS011;11279;48.364;10.904;2023-04-06T04:08:56;19.03;;;11.80;;
22219;SDS011;11279;48.364;10.904;2023-04-06T04:09:56;19.97;;;11.90;;
22219;SDS011;11279;48.364;10.904;2023-04-06T04:10:57;22.33;;;12.17;;
22219;SDS011;11279;48.364;10.904;2023-04-06T04:11:57;20.00;;;11.67;;
22219;SDS011;11279;48.364;10.904;2023-04-06T04:12:58;20.83;;;11.97;;
22219;SDS011;11279;48.364;10.904;2023-04-06T04:13:58;25.47;;;11.87;;
22219;SDS011;11279;48.364;10.904;2023-04-06T04:14:58;19.43;;;11.37;;
22219;SDS011;11279;48.364;10.904;2023-04-06T04:15:59;20.20;;;11.83;;
22219;SDS011;11279;48.364;10.904;2023-04-06T04:17:00;20.27;;;11.03;;
22219;SDS011;11279;48.364;10.904;2023-04-06T04:18:00;18.23;;;10.53;;
22219;SDS011;11279;48.364;10.904;2023-04-06T04:19:00;17.67;;;11.47;;
22219;SDS011;11279;48.364;10.904;2023-04-06T04:20:01;26.60;;;11.23;;
22219;SDS011;11279;48.364;10.904;2023-04-06T04:21:01;20.40;;;11.90;;
22219;SDS011;11279;48.364;10.904;2023-04-06T04:22:02;20.70;;;11.87;;
22219;SDS011;11279;48.364;10.904;2023-04-06T04:23:04;19.55;;;11.02;;
22219;SDS011;11279;48.364;10.904;2023-04-06T04:24:05;19.60;;;11.23;;
22219;SDS011;11279;48.364;10.904;2023-04-06T04:25:06;20.17;;;11.07;;
22219;SDS011;11279;48.364;10.904;2023-04-06T04:26:06;18.13;;;10.83;;
22219;SDS011;11279;48.364;10.904;2023-04-06T04:27:07;20.13;;;12.00;;
22219;SDS011;11279;48.364;10.904;2023-04-06T04:28:07;18.30;;;11.30;;
22219;SDS011;11279;48.364;10.904;2023-04-06T04:29:07;20.40;;;11.43;;
22219;SDS011;11279;48.364;10.904;2023-04-06T04:30:08;19.63;;;11.97;;
22219;SDS011;11279;48.364;10.904;2023-04-06T04:31:08;21.47;;;11.63;;
22219;SDS011;11279;48.364;10.904;2023-04-06T04:32:09;19.43;;;12.43;;
22219;SDS011;11279;48.364;10.904;2023-04-06T04:33:09;20.03;;;12.00;;
22219;SDS011;11279;48.364;10.904;2023-04-06T04:34:10;19.97;;;11.93;;
22219;SDS011;11279;48.364;10.904;2023-04-06T04:35:10;23.70;;;12.20;;
22219;SDS011;11279;48.364;10.904;2023-04-06T04:36:13;20.20;;;12.23;;
22219;SDS011;11279;48.364;10.904;2023-04-06T04:37:13;22.23;;;12.57;;
22219;SDS011;11279;48.364;10.904;2023-04-06T04:38:14;21.47;;;12.17;;
22219;SDS011;11279;48.364;10.904;2023-04-06T04:39:14;25.70;;;12.30;;
22219;SDS011;11279;48.364;10.904;2023-04-06T04:40:15;17.30;;;11.13;;
22219;SDS011;11279;48.364;10.904;2023-04-06T04:41:16;20.25;;;12.25;;
22219;SDS011;11279;48.364;10.904;2023-04-06T04:42:17;21.27;;;11.87;;
22219;SDS011;11279;48.364;10.904;2023-04-06T04:43:17;22.07;;;11.83;;
22219;SDS011;11279;48.364;10.904;2023-04-06T04:44:17;17.87;;;11.43;;
22219;SDS011;11279;48.364;10.904;2023-04-06T04:45:18;19.33;;;11.73;;
22219;SDS011;11279;48.364;10.904;2023-04-06T04:46:18;19.07;;;11.20;;
22219;SDS011;11279;48.364;10.904;2023-04-06T04:47:19;20.57;;;12.33;;
22219;SDS011;11279;48.364;10.904;2023-04-06T04:48:19;21.67;;;11.43;;
22219;SDS011;11279;48.364;10.904;2023-04-06T04:49:19;20.33;;;11.23;;
22219;SDS011;11279;48.364;10.904;2023-04-06T04:50:20;18.77;;;10.93;;
22219;SDS011;11279;48.364;10.904;2023-04-06T04:51:20;21.10;;;11.60;;
22219;SDS011;11279;48.364;10.904;2023-04-06T04:52:21;19.43;;;12.23;;
22219;SDS011;11279;48.364;10.904;2023-04-06T04:53:21;18.10;;;11.60;;
22219;SDS011;11279;48.364;10.904;2023-04-06T04:54:22;21.53;;;11.90;;
22219;SDS011;11279;48.364;10.904;2023-04-06T04:55:22;16.97;;;11.60;;
22219;SDS011;11279;48.364;10.904;2023-04-06T04:56:23;22.93;;;12.40;;
22219;SDS011;11279;48.364;10.904;2023-04-06T04:57:23;18.17;;;10.77;;
22219;SDS011;11279;48.364;10.904;2023-04-06T04:58:24;21.23;;;11.93;;
22219;SDS011;11279;48.364;10.904;2023-04-06T04:59:24;23.87;;;12.43;;
22219;SDS011;11279;48.364;10.904;2023-04-06T05:00:25;21.30;;;12.00;;
22219;SDS011;11279;48.364;10.904;2023-04-06T05:01:25;19.73;;;12.33;;
22219;SDS011;11279;48.364;10.904;2023-04-06T05:02:26;19.60;;;11.53;;
22219;SDS011;11279;48.364;10.904;2023-04-06T05:03:26;18.30;;;11.67;;
22219;SDS011;11279;48.364;10.904;2023-04-06T05:04:27;21.20;;;11.67;;
22219;SDS011;11279;48.364;10.904;2023-04-06T05:05:27;24.43;;;12.13;;
22219;SDS011;11279;48.364;10.904;2023-04-06T05:06:28;18.60;;;12.20;;
22219;SDS011;11279;48.364;10.904;2023-04-06T05:07:28;19.90;;;11.80;;
22219;SDS011;11279;48.364;10.904;2023-04-06T05:08:28;21.53;;;12.30;;
22219;SDS011;11279;48.364;10.904;2023-04-06T05:09:29;22.10;;;13.83;;
22219;SDS011;11279;48.364;10.904;2023-04-06T05:10:31;25.52;;;13.38;;
22219;SDS011;11279;48.364;10.904;2023-04-06T05:11:31;24.67;;;12.33;;
22219;SDS011;11279;48.364;10.904;2023-04-06T05:12:32;23.80;;;12.83;;
22219;SDS011;11279;48.364;10.904;2023-04-06T05:13:32;20.67;;;11.87;;
22219;SDS011;11279;48.364;10.904;2023-04-06T05:14:33;22.70;;;12.20;;
22219;SDS011;11279;48.364;10.904;2023-04-06T05:15:33;19.27;;;11.90;;
22219;SDS011;11279;48.364;10.904;2023-04-06T05:16:39;19.55;;;11.07;;
22219;SDS011;11279;48.364;10.904;2023-04-06T05:17:39;20.00;;;11.90;;
22219;SDS011;11279;48.364;10.904;2023-04-06T05:18:40;21.20;;;12.27;;
22219;SDS011;11279;48.364;10.904;2023-04-06T05:19:40;21.60;;;11.77;;
22219;SDS011;11279;48.364;10.904;2023-04-06T05:20:41;21.33;;;11.13;;
22219;SDS011;11279;48.364;10.904;2023-04-06T05:21:42;22.15;;;12.45;;
22219;SDS011;11279;48.364;10.904;2023-04-06T05:22:43;18.30;;;11.10;;
22219;SDS011;11279;48.364;10.904;2023-04-06T05:23:43;25.17;;;11.60;;
22219;SDS011;11279;48.364;10.904;2023-04-06T05:24:43;19.67;;;11.23;;
22219;SDS011;11279;48.364;10.904;2023-04-06T05:25:44;17.00;;;10.80;;
22219;SDS011;11279;48.364;10.904;2023-04-06T05:26:44;18.83;;;11.23;;
22219;SDS011;11279;48.364;10.904;2023-04-06T05:27:45;18.83;;;12.13;;
22219;SDS011;11279;48.364;10.904;2023-04-06T05:28:45;14.93;;;10.50;;
22219;SDS011;11279;48.364;10.904;2023-04-06T05:29:46;19.93;;;11.43;;
22219;SDS011;11279;48.364;10.904;2023-04-06T05:30:46;15.20;;;10.20;;
22219;SDS011;11279;48.364;10.904;2023-04-06T05:31:47;19.03;;;11.10;;
22219;SDS011;11279;48.364;10.904;2023-04-06T05:32:47;16.33;;;10.57;;
22219;SDS011;11279;48.364;10.904;2023-04-06T05:33:48;20.23;;;12.07;;
22219;SDS011;11279;48.364;10.904;2023-04-06T05:34:48;18.77;;;10.53;;
22219;SDS011;11279;48.364;10.904;2023-04-06T05:35:50;18.90;;;11.07;;
22219;SDS011;11279;48.364;10.904;2023-04-06T05:36:50;16.77;;;10.27;;
22219;SDS011;11279;48.364;10.904;2023-04-06T05:37:50;18.10;;;10.63;;
22219;SDS011;11279;48.364;10.904;2023-04-06T05:38:51;16.67;;;10.50;;
22219;SDS011;11279;48.364;10.904;2023-04-06T05:39:52;21.65;;;10.52;;
22219;SDS011;11279;48.364;10.904;2023-04-06T05:40:53;16.80;;;10.37;;
22219;SDS011;11279;48.364;10.904;2023-04-06T05:41:53;18.47;;;9.73;;
22219;SDS011;11279;48.364;10.904;2023-04-06T05:42:54;20.03;;;10.10;;
22219;SDS011;11279;48.364;10.904;2023-04-06T05:43:54;17.03;;;9.93;;
22219;SDS011;11279;48.364;10.904;2023-04-06T05:44:55;21.60;;;9.90;;
22219;SDS011;11279;48.364;10.904;2023-04-06T05:45:56;19.00;;;10.20;;
22219;SDS011;11279;48.364;10.904;2023-04-06T05:46:56;17.93;;;9.70;;
22219;SDS011;11279;48.364;10.904;2023-04-06T05:47:56;19.70;;;10.47;;
22219;SDS011;11279;48.364;10.904;2023-04-06T05:48:57;18.50;;;10.17;;
22219;SDS011;11279;48.364;10.904;2023-04-06T05:49:57;21.83;;;9.37;;
22219;SDS011;11279;48.364;10.904;2023-04-06T05:50:58;20.93;;;9.80;;